sensor_id;sensor_type;location;lat;lon;timestamp;temperature;humidity
21340;DHT22;10828;47.064;15.422;2023-09-12T00:02:20;20.30;99.90
21340;DHT22;10828;47.064;15.422;2023-09-12T00:04:46;20.20;99.90
21340;DHT22;10828;47.064;15.422;2023-09-12T00:07:11;20.30;99.90
21340;DHT22;10828;47.064;15.422;2023-09-12T00:09:37;20.20;99.90
21340;DHT22;10828;47.064;15.422;2023-09-12T00:12:03;20.10;99.90
21340;DHT22;10828;47.064;15.422;2023-09-12T00:14:28;20.00;99.90
21340;DHT22;10828;47.064;15.422;2023-09-12T00:16:54;19.90;99.90
21340;DHT22;10828;47.064;15.422;2023-09-12T00:19:20;19.90;99.90
21340;DHT22;10828;47.064;15.422;2023-09-12T00:21:46;19.80;99.90
21340;DHT22;10828;47.064;15.422;2023-09-12T00:24:12;19.70;99.90
21340;DHT22;10828;47.064;15.422;2023-09-12T00:26:37;19.60;99.90
21340;DHT22;10828;47.064;15.422;2023-09-12T00:29:03;19.50;99.90
21340;DHT22;10828;47.064;15.422;2023-09-12T00:31:28;19.40;99.90
21340;DHT22;10828;47.064;15.422;2023-09-12T00:33:54;19.40;99.90
21340;DHT22;10828;47.064;15.422;2023-09-12T00:36:19;19.30;99.90
21340;DHT22;10828;47.064;15.422;2023-09-12T00:38:45;19.20;99.90
21340;DHT22;10828;47.064;15.422;2023-09-12T00:41:10;19.20;99.90
21340;DHT22;10828;47.064;15.422;2023-09-12T00:43:36;19.20;99.90
21340;DHT22;10828;47.064;15.422;2023-09-12T00:46:01;19.20;99.90
21340;DHT22;10828;47.064;15.422;2023-09-12T00:48:29;19.10;99.90
21340;DHT22;10828;47.064;15.422;2023-09-12T00:50:55;19.10;99.90
21340;DHT22;10828;47.064;15.422;2023-09-12T00:53:21;19.10;99.90
21340;DHT22;10828;47.064;15.422;2023-09-12T00:55:51;19.00;99.90
21340;DHT22;10828;47.064;15.422;2023-09-12T00:58:22;19.00;99.90
21340;DHT22;10828;47.064;15.422;2023-09-12T01:00:49;19.00;99.90
21340;DHT22;10828;47.064;15.422;2023-09-12T01:03:14;18.90;99.90
21340;DHT22;10828;47.064;15.422;2023-09-12T01:05:42;18.90;99.90
21340;DHT22;10828;47.064;15.422;2023-09-12T01:08:08;18.90;99.90
21340;DHT22;10828;47.064;15.422;2023-09-12T01:10:34;18.90;99.90
21340;DHT22;10828;47.064;15.422;2023-09-12T01:12:59;18.90;99.90
21340;DHT22;10828;47.064;15.422;2023-09-12T01:15:25;18.90;99.90
21340;DHT22;10828;47.064;15.422;2023-09-12T01:17:51;18.80;99.90
21340;DHT22;10828;47.064;15.422;2023-09-12T01:20:22;18.80;99.90
21340;DHT22;10828;47.064;15.422;2023-09-12T01:28:08;18.70;99.90
21340;DHT22;10828;47.064;15.422;2023-09-12T01:30:35;18.70;99.90
21340;DHT22;10828;47.064;15.422;2023-09-12T01:33:01;18.70;99.90
21340;DHT22;10828;47.064;15.422;2023-09-12T01:35:27;18.70;99.90
21340;DHT22;10828;47.064;15.422;2023-09-12T01:37:54;18.70;99.90
21340;DHT22;10828;47.064;15.422;2023-09-12T01:40:35;18.70;99.90
21340;DHT22;10828;47.064;15.422;2023-09-12T01:43:04;18.70;99.90
21340;DHT22;10828;47.064;15.422;2023-09-12T01:45:30;18.60;99.90
21340;DHT22;10828;47.064;15.422;2023-09-12T01:47:57;18.50;99.90
21340;DHT22;10828;47.064;15.422;2023-09-12T01:50:25;18.50;99.90
21340;DHT22;10828;47.064;15.422;2023-09-12T01:52:52;18.50;99.90
21340;DHT22;10828;47.064;15.422;2023-09-12T01:55:19;18.40;99.90
21340;DHT22;10828;47.064;15.422;2023-09-12T01:57:45;18.40;99.90
21340;DHT22;10828;47.064;15.422;2023-09-12T02:00:13;18.30;99.90
21340;DHT22;10828;47.064;15.422;2023-09-12T02:02:38;18.30;99.90
21340;DHT22;10828;47.064;15.422;2023-09-12T02:05:11;18.30;99.90
21340;DHT22;10828;47.064;15.422;2023-09-12T02:07:40;18.30;99.90
21340;DHT22;10828;47.064;15.422;2023-09-12T02:10:06;18.20;99.90
21340;DHT22;10828;47.064;15.422;2023-09-12T02:12:33;18.20;99.90
21340;DHT22;10828;47.064;15.422;2023-09-12T02:14:59;18.10;99.90
21340;DHT22;10828;47.064;15.422;2023-09-12T02:17:24;18.10;99.90
21340;DHT22;10828;47.064;15.422;2023-09-12T02:19:50;18.10;99.90
21340;DHT22;10828;47.064;15.422;2023-09-12T02:22:17;18.10;99.90
21340;DHT22;10828;47.064;15.422;2023-09-12T02:24:43;18.00;99.90
21340;DHT22;10828;47.064;15.422;2023-09-12T02:27:09;18.00;99.90
21340;DHT22;10828;47.064;15.422;2023-09-12T02:29:34;18.00;99.90
21340;DHT22;10828;47.064;15.422;2023-09-12T02:32:02;17.90;99.90
21340;DHT22;10828;47.064;15.422;2023-09-12T02:34:28;17.90;99.90
21340;DHT22;10828;47.064;15.422;2023-09-12T02:36:53;17.80;99.90
21340;DHT22;10828;47.064;15.422;2023-09-12T02:39:19;17.80;99.90
21340;DHT22;10828;47.064;15.422;2023-09-12T02:41:45;17.80;99.90
21340;DHT22;10828;47.064;15.422;2023-09-12T02:44:11;17.80;99.90
21340;DHT22;10828;47.064;15.422;2023-09-12T02:46:37;17.70;99.90
21340;DHT22;10828;47.064;15.422;2023-09-12T02:49:02;17.70;99.90
21340;DHT22;10828;47.064;15.422;2023-09-12T02:51:28;17.70;99.90
21340;DHT22;10828;47.064;15.422;2023-09-12T02:53:54;17.80;99.90
21340;DHT22;10828;47.064;15.422;2023-09-12T02:56:20;17.80;99.90
21340;DHT22;10828;47.064;15.422;2023-09-12T02:58:49;17.80;99.90
21340;DHT22;10828;47.064;15.422;2023-09-12T03:01:19;17.80;99.90
21340;DHT22;10828;47.064;15.422;2023-09-12T03:03:49;17.80;99.90
21340;DHT22;10828;47.064;15.422;2023-09-12T03:06:15;17.80;99.90
21340;DHT22;10828;47.064;15.422;2023-09-12T03:08:42;17.70;99.90
21340;DHT22;10828;47.064;15.422;2023-09-12T03:11:09;17.80;99.90
21340;DHT22;10828;47.064;15.422;2023-09-12T03:13:36;17.80;99.90
21340;DHT22;10828;47.064;15.422;2023-09-12T03:16:02;17.70;99.90
21340;DHT22;10828;47.064;15.422;2023-09-12T03:18:29;17.70;99.90
21340;DHT22;10828;47.064;15.422;2023-09-12T03:20:55;17.70;99.90
21340;DHT22;10828;47.064;15.422;2023-09-12T03:23:21;17.70;99.90
21340;DHT22;10828;47.064;15.422;2023-09-12T03:25:47;17.70;99.90
21340;DHT22;10828;47.064;15.422;2023-09-12T03:28:12;17.70;99.90
21340;DHT22;10828;47.064;15.422;2023-09-12T03:30:38;17.70;99.90
21340;DHT22;10828;47.064;15.422;2023-09-12T03:33:05;17.70;99.90
21340;DHT22;10828;47.064;15.422;2023-09-12T03:35:35;17.70;99.90
21340;DHT22;10828;47.064;15.422;2023-09-12T03:38:01;17.60;99.90
21340;DHT22;10828;47.064;15.422;2023-09-12T03:40:30;17.70;99.90
21340;DHT22;10828;47.064;15.422;2023-09-12T03:42:57;17.60;99.90
21340;DHT22;10828;47.064;15.422;2023-09-12T03:45:23;17.70;99.90
21340;DHT22;10828;47.064;15.422;2023-09-12T03:47:49;17.70;99.90
21340;DHT22;10828;47.064;15.422;2023-09-12T03:50:14;17.70;99.90
21340;DHT22;10828;47.064;15.422;2023-09-12T03:52:40;17.70;99.90
21340;DHT22;10828;47.064;15.422;2023-09-12T03:55:06;17.70;99.90
21340;DHT22;10828;47.064;15.422;2023-09-12T03:57:32;17.70;99.90
21340;DHT22;10828;47.064;15.422;2023-09-12T03:59:57;17.80;99.90
21340;DHT22;10828;47.064;15.422;2023-09-12T04:02:24;17.80;99.90
21340;DHT22;10828;47.064;15.422;2023-09-12T04:04:51;17.80;99.90
21340;DHT22;10828;47.064;15.422;2023-09-12T04:07:18;17.80;99.90
21340;DHT22;10828;47.064;15.422;2023-09-12T04:09:44;17.90;99.90
21340;DHT22;10828;47.064;15.422;2023-09-12T04:12:09;17.90;99.90
21340;DHT22;10828;47.064;15.422;2023-09-12T04:14:35;17.90;99.90
21340;DHT22;10828;47.064;15.422;2023-09-12T04:17:02;17.90;99.90
21340;DHT22;10828;47.064;15.422;2023-09-12T04:19:30;17.80;99.90
21340;DHT22;10828;47.064;15.422;2023-09-12T04:21:56;17.80;99.90
21340;DHT22;10828;47.064;15.422;2023-09-12T04:24:21;17.70;99.90
21340;DHT22;10828;47.064;15.422;2023-09-12T04:26:47;17.70;99.90
21340;DHT22;10828;47.064;15.422;2023-09-12T04:29:12;17.70;99.90
21340;DHT22;10828;47.064;15.422;2023-09-12T04:31:38;17.60;99.90
21340;DHT22;10828;47.064;15.422;2023-09-12T04:34:06;17.60;99.90
21340;DHT22;10828;47.064;15.422;2023-09-12T04:36:31;17.60;99.90
21340;DHT22;10828;47.064;15.422;2023-09-12T04:38:57;17.60;99.90
21340;DHT22;10828;47.064;15.422;2023-09-12T04:41:22;17.60;99.90
21340;DHT22;10828;47.064;15.422;2023-09-12T04:43:48;17.70;99.90
21340;DHT22;10828;47.064;15.422;2023-09-12T04:46:15;17.70;99.90
21340;DHT22;10828;47.064;15.422;2023-09-12T04:48:40;17.70;99.90
21340;DHT22;10828;47.064;15.422;2023-09-12T04:51:06;17.70;99.90
21340;DHT22;10828;47.064;15.422;2023-09-12T04:53:32;17.60;99.90
21340;DHT22;10828;47.064;15.422;2023-09-12T04:56:02;17.60;99.90
21340;DHT22;10828;47.064;15.422;2023-09-12T04:58:43;17.50;99.90
21340;DHT22;10828;47.064;15.422;2023-09-12T05:01:11;17.50;99.90
21340;DHT22;10828;47.064;15.422;2023-09-12T05:03:39;17.50;99.90
21340;DHT22;10828;47.064;15.422;2023-09-12T05:06:09;17.50;99.90
21340;DHT22;10828;47.064;15.422;2023-09-12T05:08:35;17.60;99.90
21340;DHT22;10828;47.064;15.422;2023-09-12T05:11:01;17.70;99.90
21340;DHT22;10828;47.064;15.422;2023-09-12T05:13:28;17.70;99.90
21340;DHT22;10828;47.064;15.422;2023-09-12T05:15:54;17.80;99.90
21340;DHT22;10828;47.064;15.422;2023-09-12T05:18:22;17.80;99.90
21340;DHT22;10828;47.064;15.422;2023-09-12T05:20:55;17.70;99.90
21340;DHT22;10828;47.064;15.422;2023-09-12T05:23:20;17.80;99.90
21340;DHT22;10828;47.064;15.422;2023-09-12T05:25:46;17.80;99.90
21340;DHT22;10828;47.064;15.422;2023-09-12T05:28:13;17.80;99.90
21340;DHT22;10828;47.064;15.422;2023-09-12T05:30:42;17.80;99.90
21340;DHT22;10828;47.064;15.422;2023-09-12T05:33:11;17.90;99.90
21340;DHT22;10828;47.064;15.422;2023-09-12T05:35:37;17.90;99.90
21340;DHT22;10828;47.064;15.422;2023-09-12T05:38:05;18.00;99.90
21340;DHT22;10828;47.064;15.422;2023-09-12T05:40:31;18.10;99.90
21340;DHT22;10828;47.064;15.422;2023-09-12T05:42:57;18.10;99.90
21340;DHT22;10828;47.064;15.422;2023-09-12T05:45:24;18.20;99.90
21340;DHT22;10828;47.064;15.422;2023-09-12T05:47:49;18.20;99.90
21340;DHT22;10828;47.064;15.422;2023-09-12T05:50:25;18.30;99.90
21340;DHT22;10828;47.064;15.422;2023-09-12T05:52:53;18.40;99.90
21340;DHT22;10828;47.064;15.422;2023-09-12T05:55:18;18.50;99.90
21340;DHT22;10828;47.064;15.422;2023-09-12T05:57:52;18.50;99.90
21340;DHT22;10828;47.064;15.422;2023-09-12T06:00:19;18.50;99.90
21340;DHT22;10828;47.064;15.422;2023-09-12T06:02:48;18.70;99.90
21340;DHT22;10828;47.064;15.422;2023-09-12T06:05:15;18.70;99.90
21340;DHT22;10828;47.064;15.422;2023-09-12T06:07:41;18.80;99.90
21340;DHT22;10828;47.064;15.422;2023-09-12T06:10:14;18.90;99.90
21340;DHT22;10828;47.064;15.422;2023-09-12T06:12:46;19.00;99.90
21340;DHT22;10828;47.064;15.422;2023-09-12T06:15:14;19.00;99.90
21340;DHT22;10828;47.064;15.422;2023-09-12T06:17:44;19.10;99.90
21340;DHT22;10828;47.064;15.422;2023-09-12T06:20:10;19.30;99.90
21340;DHT22;10828;47.064;15.422;2023-09-12T06:22:37;19.40;99.90
21340;DHT22;10828;47.064;15.422;2023-09-12T06:25:03;19.40;99.90
21340;DHT22;10828;47.064;15.422;2023-09-12T06:27:31;19.50;99.90
21340;DHT22;10828;47.064;15.422;2023-09-12T06:29:56;19.60;99.90
21340;DHT22;10828;47.064;15.422;2023-09-12T06:32:22;19.70;99.90
21340;DHT22;10828;47.064;15.422;2023-09-12T06:34:48;19.80;99.90
21340;DHT22;10828;47.064;15.422;2023-09-12T06:37:13;19.80;99.90
21340;DHT22;10828;47.064;15.422;2023-09-12T06:39:39;19.80;99.90
21340;DHT22;10828;47.064;15.422;2023-09-12T06:42:11;19.80;99.90
21340;DHT22;10828;47.064;15.422;2023-09-12T06:44:38;19.90;99.90
21340;DHT22;10828;47.064;15.422;2023-09-12T06:47:07;20.00;99.90
21340;DHT22;10828;47.064;15.422;2023-09-12T06:49:32;20.10;99.90
21340;DHT22;10828;47.064;15.422;2023-09-12T06:51:58;20.20;99.90
21340;DHT22;10828;47.064;15.422;2023-09-12T06:54:24;20.20;99.90
21340;DHT22;10828;47.064;15.422;2023-09-12T06:56:49;20.30;99.90
21340;DHT22;10828;47.064;15.422;2023-09-12T06:59:16;20.40;99.90
21340;DHT22;10828;47.064;15.422;2023-09-12T07:01:41;20.50;99.90
21340;DHT22;10828;47.064;15.422;2023-09-12T07:04:08;20.60;99.90
21340;DHT22;10828;47.064;15.422;2023-09-12T07:06:34;20.60;99.90
21340;DHT22;10828;47.064;15.422;2023-09-12T07:09:00;20.70;99.90
21340;DHT22;10828;47.064;15.422;2023-09-12T07:11:25;20.80;99.90
21340;DHT22;10828;47.064;15.422;2023-09-12T07:13:51;20.80;99.90
21340;DHT22;10828;47.064;15.422;2023-09-12T07:16:16;20.90;99.90
21340;DHT22;10828;47.064;15.422;2023-09-12T07:18:43;21.00;99.90
21340;DHT22;10828;47.064;15.422;2023-09-12T07:21:09;21.10;99.90
21340;DHT22;10828;47.064;15.422;2023-09-12T07:23:41;21.10;99.90
21340;DHT22;10828;47.064;15.422;2023-09-12T07:26:12;21.10;99.90
21340;DHT22;10828;47.064;15.422;2023-09-12T07:28:39;21.20;99.90
21340;DHT22;10828;47.064;15.422;2023-09-12T07:31:06;21.30;99.90
21340;DHT22;10828;47.064;15.422;2023-09-12T07:33:32;21.40;99.90
21340;DHT22;10828;47.064;15.422;2023-09-12T07:36:01;21.40;99.90
21340;DHT22;10828;47.064;15.422;2023-09-12T07:38:36;21.50;99.90
21340;DHT22;10828;47.064;15.422;2023-09-12T07:41:03;21.50;99.90
21340;DHT22;10828;47.064;15.422;2023-09-12T07:43:37;21.60;99.90
21340;DHT22;10828;47.064;15.422;2023-09-12T07:46:02;21.70;99.90
21340;DHT22;10828;47.064;15.422;2023-09-12T07:48:31;21.70;99.90
21340;DHT22;10828;47.064;15.422;2023-09-12T07:50:57;21.80;99.90
21340;DHT22;10828;47.064;15.422;2023-09-12T07:53:24;21.90;99.90
21340;DHT22;10828;47.064;15.422;2023-09-12T07:55:49;22.00;99.90
21340;DHT22;10828;47.064;15.422;2023-09-12T07:58:17;22.00;99.90
21340;DHT22;10828;47.064;15.422;2023-09-12T08:00:47;22.00;99.90
21340;DHT22;10828;47.064;15.422;2023-09-12T08:03:13;22.10;99.90
21340;DHT22;10828;47.064;15.422;2023-09-12T08:05:41;22.20;99.90
21340;DHT22;10828;47.064;15.422;2023-09-12T08:08:32;22.30;99.90
21340;DHT22;10828;47.064;15.422;2023-09-12T08:10:58;22.40;99.90
21340;DHT22;10828;47.064;15.422;2023-09-12T08:13:28;22.40;99.90
21340;DHT22;10828;47.064;15.422;2023-09-12T08:15:54;22.50;99.90
21340;DHT22;10828;47.064;15.422;2023-09-12T08:18:19;22.60;99.90
21340;DHT22;10828;47.064;15.422;2023-09-12T08:20:45;22.70;99.90
21340;DHT22;10828;47.064;15.422;2023-09-12T08:23:11;22.70;99.90
21340;DHT22;10828;47.064;15.422;2023-09-12T08:25:36;22.80;99.90
21340;DHT22;10828;47.064;15.422;2023-09-12T08:28:02;23.00;99.90
21340;DHT22;10828;47.064;15.422;2023-09-12T08:30:28;23.10;99.90
21340;DHT22;10828;47.064;15.422;2023-09-12T08:32:55;23.20;99.90
21340;DHT22;10828;47.064;15.422;2023-09-12T08:35:21;23.20;99.90
21340;DHT22;10828;47.064;15.422;2023-09-12T08:37:47;23.30;99.90
21340;DHT22;10828;47.064;15.422;2023-09-12T08:40:14;23.30;99.90
21340;DHT22;10828;47.064;15.422;2023-09-12T08:42:45;23.50;99.90
21340;DHT22;10828;47.064;15.422;2023-09-12T08:45:20;23.50;99.90
21340;DHT22;10828;47.064;15.422;2023-09-12T08:47:54;23.70;99.90
21340;DHT22;10828;47.064;15.422;2023-09-12T08:50:21;23.80;99.90
21340;DHT22;10828;47.064;15.422;2023-09-12T08:52:48;24.00;99.90
21340;DHT22;10828;47.064;15.422;2023-09-12T08:55:14;24.10;99.90
21340;DHT22;10828;47.064;15.422;2023-09-12T08:57:42;24.20;99.90
21340;DHT22;10828;47.064;15.422;2023-09-12T09:00:09;24.40;99.90
21340;DHT22;10828;47.064;15.422;2023-09-12T09:02:36;24.60;99.90
21340;DHT22;10828;47.064;15.422;2023-09-12T09:05:04;24.60;99.90
21340;DHT22;10828;47.064;15.422;2023-09-12T09:07:36;24.70;99.90
21340;DHT22;10828;47.064;15.422;2023-09-12T09:10:04;24.80;99.90
21340;DHT22;10828;47.064;15.422;2023-09-12T09:12:35;24.90;99.90
21340;DHT22;10828;47.064;15.422;2023-09-12T09:15:26;25.10;99.90
21340;DHT22;10828;47.064;15.422;2023-09-12T09:17:54;25.40;99.90
21340;DHT22;10828;47.064;15.422;2023-09-12T09:20:28;25.60;99.90
21340;DHT22;10828;47.064;15.422;2023-09-12T09:23:09;25.90;99.90
21340;DHT22;10828;47.064;15.422;2023-09-12T09:25:43;26.10;99.90
21340;DHT22;10828;47.064;15.422;2023-09-12T09:28:19;26.30;99.90
21340;DHT22;10828;47.064;15.422;2023-09-12T09:30:47;26.40;99.90
21340;DHT22;10828;47.064;15.422;2023-09-12T09:33:15;26.30;99.90
21340;DHT22;10828;47.064;15.422;2023-09-12T09:35:48;26.20;99.90
21340;DHT22;10828;47.064;15.422;2023-09-12T09:38:15;26.40;99.90
21340;DHT22;10828;47.064;15.422;2023-09-12T09:40:54;26.70;99.90
21340;DHT22;10828;47.064;15.422;2023-09-12T09:43:21;26.80;99.90
21340;DHT22;10828;47.064;15.422;2023-09-12T09:45:47;27.00;99.90
21340;DHT22;10828;47.064;15.422;2023-09-12T09:48:23;26.90;99.90
21340;DHT22;10828;47.064;15.422;2023-09-12T09:50:51;26.80;99.90
21340;DHT22;10828;47.064;15.422;2023-09-12T09:53:30;26.80;99.90
21340;DHT22;10828;47.064;15.422;2023-09-12T09:56:11;26.90;99.90
21340;DHT22;10828;47.064;15.422;2023-09-12T09:58:52;27.00;99.90
21340;DHT22;10828;47.064;15.422;2023-09-12T10:01:26;27.10;99.90
21340;DHT22;10828;47.064;15.422;2023-09-12T10:04:01;27.50;99.90
21340;DHT22;10828;47.064;15.422;2023-09-12T10:06:29;27.70;99.90
21340;DHT22;10828;47.064;15.422;2023-09-12T10:08:58;27.90;99.90
21340;DHT22;10828;47.064;15.422;2023-09-12T10:11:32;27.80;99.90
21340;DHT22;10828;47.064;15.422;2023-09-12T10:14:03;28.00;99.90
21340;DHT22;10828;47.064;15.422;2023-09-12T10:16:44;28.10;99.90
21340;DHT22;10828;47.064;15.422;2023-09-12T10:19:42;28.30;99.90
21340;DHT22;10828;47.064;15.422;2023-09-12T10:22:29;28.50;99.90
21340;DHT22;10828;47.064;15.422;2023-09-12T10:24:59;28.70;99.90
21340;DHT22;10828;47.064;15.422;2023-09-12T10:27:29;28.90;99.90
21340;DHT22;10828;47.064;15.422;2023-09-12T10:29:55;29.20;99.90
21340;DHT22;10828;47.064;15.422;2023-09-12T10:32:28;29.40;99.90
21340;DHT22;10828;47.064;15.422;2023-09-12T10:34:58;29.50;99.90
21340;DHT22;10828;47.064;15.422;2023-09-12T10:37:25;29.30;99.90
21340;DHT22;10828;47.064;15.422;2023-09-12T10:39:57;29.20;99.90
21340;DHT22;10828;47.064;15.422;2023-09-12T10:42:32;28.90;99.90
21340;DHT22;10828;47.064;15.422;2023-09-12T10:44:59;28.80;99.90
21340;DHT22;10828;47.064;15.422;2023-09-12T10:47:27;28.80;99.90
21340;DHT22;10828;47.064;15.422;2023-09-12T10:49:53;28.90;99.90
21340;DHT22;10828;47.064;15.422;2023-09-12T10:52:27;28.70;99.90
21340;DHT22;10828;47.064;15.422;2023-09-12T10:54:54;28.70;99.90
21340;DHT22;10828;47.064;15.422;2023-09-12T10:57:20;28.80;99.90
21340;DHT22;10828;47.064;15.422;2023-09-12T11:02:40;29.30;99.90
21340;DHT22;10828;47.064;15.422;2023-09-12T11:07:58;29.20;99.90
21340;DHT22;10828;47.064;15.422;2023-09-12T11:10:26;29.00;99.90
21340;DHT22;10828;47.064;15.422;2023-09-12T11:12:53;29.00;99.90
21340;DHT22;10828;47.064;15.422;2023-09-12T11:15:21;29.20;99.90
21340;DHT22;10828;47.064;15.422;2023-09-12T11:17:49;29.30;99.90
21340;DHT22;10828;47.064;15.422;2023-09-12T11:20:16;29.50;99.90
21340;DHT22;10828;47.064;15.422;2023-09-12T11:22:43;29.50;99.90
21340;DHT22;10828;47.064;15.422;2023-09-12T11:25:16;29.40;99.90
21340;DHT22;10828;47.064;15.422;2023-09-12T11:30:21;29.30;99.90
21340;DHT22;10828;47.064;15.422;2023-09-12T11:32:53;29.50;99.90
21340;DHT22;10828;47.064;15.422;2023-09-12T11:35:24;29.40;99.90
21340;DHT22;10828;47.064;15.422;2023-09-12T11:37:54;29.50;99.90
21340;DHT22;10828;47.064;15.422;2023-09-12T11:40:25;29.90;99.90
21340;DHT22;10828;47.064;15.422;2023-09-12T11:42:52;29.90;99.90
21340;DHT22;10828;47.064;15.422;2023-09-12T11:45:19;29.90;99.90
21340;DHT22;10828;47.064;15.422;2023-09-12T11:47:47;29.90;99.90
21340;DHT22;10828;47.064;15.422;2023-09-12T11:50:30;30.20;99.90
21340;DHT22;10828;47.064;15.422;2023-09-12T11:53:11;30.30;99.90
21340;DHT22;10828;47.064;15.422;2023-09-12T11:55:45;30.60;99.90
21340;DHT22;10828;47.064;15.422;2023-09-12T11:58:12;30.20;99.90
21340;DHT22;10828;47.064;15.422;2023-09-12T12:00:50;30.10;99.90
21340;DHT22;10828;47.064;15.422;2023-09-12T12:03:17;29.80;99.90
21340;DHT22;10828;47.064;15.422;2023-09-12T12:05:51;29.70;99.90
21340;DHT22;10828;47.064;15.422;2023-09-12T12:08:18;29.80;99.90
21340;DHT22;10828;47.064;15.422;2023-09-12T12:10:51;29.60;99.90
21340;DHT22;10828;47.064;15.422;2023-09-12T12:13:18;29.50;99.90
21340;DHT22;10828;47.064;15.422;2023-09-12T12:15:45;29.20;99.90
21340;DHT22;10828;47.064;15.422;2023-09-12T12:18:13;29.20;99.90
21340;DHT22;10828;47.064;15.422;2023-09-12T12:20:38;29.40;99.90
21340;DHT22;10828;47.064;15.422;2023-09-12T12:23:04;29.60;99.90
21340;DHT22;10828;47.064;15.422;2023-09-12T12:25:34;29.80;99.90
21340;DHT22;10828;47.064;15.422;2023-09-12T12:28:00;30.00;99.90
21340;DHT22;10828;47.064;15.422;2023-09-12T12:30:30;30.30;99.90
21340;DHT22;10828;47.064;15.422;2023-09-12T12:32:56;30.40;99.90
21340;DHT22;10828;47.064;15.422;2023-09-12T12:35:23;30.40;99.90
21340;DHT22;10828;47.064;15.422;2023-09-12T12:37:55;30.30;99.90
21340;DHT22;10828;47.064;15.422;2023-09-12T12:40:23;30.10;99.90
21340;DHT22;10828;47.064;15.422;2023-09-12T12:42:50;30.00;99.90
21340;DHT22;10828;47.064;15.422;2023-09-12T12:45:21;29.80;99.90
21340;DHT22;10828;47.064;15.422;2023-09-12T12:48:00;29.90;99.90
21340;DHT22;10828;47.064;15.422;2023-09-12T12:50:26;30.00;99.90
21340;DHT22;10828;47.064;15.422;2023-09-12T12:52:53;30.10;99.90
21340;DHT22;10828;47.064;15.422;2023-09-12T12:55:21;30.20;99.90
21340;DHT22;10828;47.064;15.422;2023-09-12T12:57:48;30.10;99.90
21340;DHT22;10828;47.064;15.422;2023-09-12T13:00:15;30.00;99.90
21340;DHT22;10828;47.064;15.422;2023-09-12T13:02:42;29.90;99.90
21340;DHT22;10828;47.064;15.422;2023-09-12T13:05:29;30.20;99.90
21340;DHT22;10828;47.064;15.422;2023-09-12T13:07:56;30.20;99.90
21340;DHT22;10828;47.064;15.422;2023-09-12T13:10:22;30.20;99.90
21340;DHT22;10828;47.064;15.422;2023-09-12T13:12:49;30.40;99.90
21340;DHT22;10828;47.064;15.422;2023-09-12T13:15:24;30.20;99.90
21340;DHT22;10828;47.064;15.422;2023-09-12T13:17:50;30.10;99.90
21340;DHT22;10828;47.064;15.422;2023-09-12T13:20:17;29.90;99.90
21340;DHT22;10828;47.064;15.422;2023-09-12T13:22:44;29.70;99.90
21340;DHT22;10828;47.064;15.422;2023-09-12T13:25:10;29.70;99.90
21340;DHT22;10828;47.064;15.422;2023-09-12T13:27:38;29.60;99.90
21340;DHT22;10828;47.064;15.422;2023-09-12T13:30:05;29.80;99.90
21340;DHT22;10828;47.064;15.422;2023-09-12T13:32:32;29.80;99.90
21340;DHT22;10828;47.064;15.422;2023-09-12T13:34:58;29.90;99.90
21340;DHT22;10828;47.064;15.422;2023-09-12T13:37:24;29.80;99.90
21340;DHT22;10828;47.064;15.422;2023-09-12T13:39:53;29.80;99.90
21340;DHT22;10828;47.064;15.422;2023-09-12T13:42:18;29.80;99.90
21340;DHT22;10828;47.064;15.422;2023-09-12T13:44:47;29.70;99.90
21340;DHT22;10828;47.064;15.422;2023-09-12T13:47:19;29.70;99.90
21340;DHT22;10828;47.064;15.422;2023-09-12T13:49:51;29.70;99.90
21340;DHT22;10828;47.064;15.422;2023-09-12T13:52:26;29.70;99.90
21340;DHT22;10828;47.064;15.422;2023-09-12T13:54:53;29.80;99.90
21340;DHT22;10828;47.064;15.422;2023-09-12T13:57:19;29.70;99.90
21340;DHT22;10828;47.064;15.422;2023-09-12T13:59:45;29.70;99.90
21340;DHT22;10828;47.064;15.422;2023-09-12T14:02:11;29.70;99.90
21340;DHT22;10828;47.064;15.422;2023-09-12T14:04:39;29.80;99.90
21340;DHT22;10828;47.064;15.422;2023-09-12T14:07:06;29.90;99.90
21340;DHT22;10828;47.064;15.422;2023-09-12T14:09:31;30.00;99.90
21340;DHT22;10828;47.064;15.422;2023-09-12T14:11:59;29.90;99.90
21340;DHT22;10828;47.064;15.422;2023-09-12T14:14:25;29.70;99.90
21340;DHT22;10828;47.064;15.422;2023-09-12T14:16:52;29.60;99.90
21340;DHT22;10828;47.064;15.422;2023-09-12T14:19:19;29.50;99.90
21340;DHT22;10828;47.064;15.422;2023-09-12T14:21:48;29.50;99.90
21340;DHT22;10828;47.064;15.422;2023-09-12T14:24:16;29.40;99.90
21340;DHT22;10828;47.064;15.422;2023-09-12T14:26:49;29.30;99.90
21340;DHT22;10828;47.064;15.422;2023-09-12T14:29:15;29.40;99.90
21340;DHT22;10828;47.064;15.422;2023-09-12T14:31:43;29.50;99.90
21340;DHT22;10828;47.064;15.422;2023-09-12T14:34:16;29.50;99.90
21340;DHT22;10828;47.064;15.422;2023-09-12T14:36:42;29.50;99.90
21340;DHT22;10828;47.064;15.422;2023-09-12T14:39:12;29.60;99.90
21340;DHT22;10828;47.064;15.422;2023-09-12T14:41:38;29.60;99.90
21340;DHT22;10828;47.064;15.422;2023-09-12T14:44:07;29.40;99.90
21340;DHT22;10828;47.064;15.422;2023-09-12T14:46:33;29.20;99.90
21340;DHT22;10828;47.064;15.422;2023-09-12T14:49:02;29.10;99.90
21340;DHT22;10828;47.064;15.422;2023-09-12T14:51:36;28.90;99.90
21340;DHT22;10828;47.064;15.422;2023-09-12T14:54:06;28.80;99.90
21340;DHT22;10828;47.064;15.422;2023-09-12T14:56:34;28.90;99.90
21340;DHT22;10828;47.064;15.422;2023-09-12T14:59:05;28.90;99.90
21340;DHT22;10828;47.064;15.422;2023-09-12T15:01:33;28.90;99.90
21340;DHT22;10828;47.064;15.422;2023-09-12T15:04:02;28.90;99.90
21340;DHT22;10828;47.064;15.422;2023-09-12T15:06:30;28.90;99.90
21340;DHT22;10828;47.064;15.422;2023-09-12T15:09:00;28.90;99.90
21340;DHT22;10828;47.064;15.422;2023-09-12T15:11:27;29.00;99.90
21340;DHT22;10828;47.064;15.422;2023-09-12T15:13:53;28.90;99.90
21340;DHT22;10828;47.064;15.422;2023-09-12T15:16:19;28.80;99.90
21340;DHT22;10828;47.064;15.422;2023-09-12T15:18:45;28.80;99.90
21340;DHT22;10828;47.064;15.422;2023-09-12T15:21:12;28.80;99.90
21340;DHT22;10828;47.064;15.422;2023-09-12T15:23:46;28.70;99.90
21340;DHT22;10828;47.064;15.422;2023-09-12T15:26:14;28.70;99.90
21340;DHT22;10828;47.064;15.422;2023-09-12T15:28:41;28.70;99.90
21340;DHT22;10828;47.064;15.422;2023-09-12T15:31:07;28.80;99.90
21340;DHT22;10828;47.064;15.422;2023-09-12T15:33:40;28.80;99.90
21340;DHT22;10828;47.064;15.422;2023-09-12T15:36:07;28.80;99.90